San Antonio, Texas
Current Conditions -  °F | °C
As of 11:58 PM on Thursday 30 Oct 2014 (Local Time) from KSKF Reporting Station
Clear Clear  
Wind Chill: 72°   Ceiling: Unl
Heat Index: 72°   Visibility: 10mi
Dew Point: 63°   Wind: 5mph
Humidity: 74%   Direction: 90°E
Pressure: 30.1"   Gusts: NA
Location:  29.42°N, 98.49°W
Report Text: KSKF 310458Z AUTO 09004KT 10SM CLR 22/17 A3010 RMK AO2 SLP187 T02220174 $
Loading
Personal Weather Stations






























Interactive Weather Map
Tropical Storm Tracking
New forecast layout! Learn more

10-Day Weather Forecast

Advertisements
Track Severe Weather on mobile